createdAt,value
2018-10-12T00:00:58.814Z,5.00
2018-10-12T00:01:58.808Z,5.10
2018-10-12T00:02:58.796Z,5.10
2018-10-12T00:03:58.883Z,4.70
2018-10-12T00:04:58.770Z,4.90
2018-10-12T00:05:58.760Z,4.90
2018-10-12T00:06:58.754Z,5.00
2018-10-12T00:07:58.750Z,5.10
2018-10-12T00:08:58.754Z,4.60
2018-10-12T00:09:58.715Z,4.80
2018-10-12T00:10:58.704Z,4.90
2018-10-12T00:11:58.694Z,5.40
2018-10-12T00:12:58.683Z,4.90
2018-10-12T00:13:58.716Z,5.00
2018-10-12T00:14:58.662Z,5.00
2018-10-12T00:15:58.649Z,4.90
2018-10-12T00:16:58.639Z,4.80
2018-10-12T00:17:59.053Z,5.00
2018-10-12T00:18:58.641Z,4.80
2018-10-12T00:19:58.658Z,5.00
2018-10-12T00:20:59.420Z,4.70
2018-10-12T00:21:58.582Z,5.10
2018-10-12T00:22:58.570Z,4.90
2018-10-12T00:23:58.559Z,4.80
2018-10-12T00:24:58.550Z,4.80
2018-10-12T00:25:58.955Z,4.90
2018-10-12T00:26:58.533Z,5.00
2018-10-12T00:27:58.515Z,4.90
2018-10-12T00:28:58.615Z,4.90
2018-10-12T00:29:58.491Z,4.90
2018-10-12T00:30:58.507Z,4.80
2018-10-12T00:31:58.472Z,5.10
2018-10-12T00:32:58.460Z,4.70
2018-10-12T00:33:58.451Z,4.80
2018-10-12T00:34:59.367Z,4.70
2018-10-12T00:35:58.611Z,4.90
2018-10-12T00:36:58.416Z,4.60
2018-10-12T00:37:58.403Z,4.70
2018-10-12T00:38:58.393Z,4.60
2018-10-12T00:39:58.416Z,4.60
2018-10-12T00:40:58.370Z,5.10
2018-10-12T00:41:58.359Z,4.80
2018-10-12T00:42:58.351Z,4.80
2018-10-12T00:43:58.337Z,4.80
2018-10-12T00:44:58.388Z,4.90
2018-10-12T00:45:58.316Z,4.70
2018-10-12T00:46:58.303Z,5.10
2018-10-12T00:47:58.291Z,5.00
2018-10-12T00:48:58.281Z,4.80
2018-10-12T00:49:58.611Z,4.70
2018-10-12T00:50:58.284Z,4.60
2018-10-12T00:51:58.248Z,4.80
2018-10-12T00:52:58.867Z,4.80
2018-10-12T00:53:58.226Z,4.80
2018-10-12T00:54:58.215Z,4.60
2018-10-12T00:55:58.610Z,4.70
2018-10-12T00:56:58.193Z,4.70
2018-10-12T00:57:58.183Z,4.60
2018-10-12T00:58:58.885Z,4.90
2018-10-12T00:59:58.159Z,4.60
2018-10-12T01:00:58.418Z,5.00
2018-10-12T01:01:58.136Z,4.70
2018-10-12T01:02:58.125Z,4.40
2018-10-12T01:03:58.115Z,4.70
2018-10-12T01:04:58.105Z,4.50
2018-10-12T01:05:58.116Z,5.10
2018-10-12T01:06:58.105Z,4.90
2018-10-12T01:07:58.073Z,4.70
2018-10-12T01:08:58.059Z,4.70
2018-10-12T01:09:58.871Z,4.70
2018-10-12T01:10:58.060Z,4.80
2018-10-12T01:11:58.026Z,4.70
2018-10-12T01:12:58.014Z,4.60
2018-10-12T01:13:58.027Z,4.60
2018-10-12T01:14:57.991Z,4.50
2018-10-12T01:15:57.980Z,4.60
2018-10-12T01:16:57.970Z,4.70
2018-10-12T01:17:57.960Z,4.70
2018-10-12T01:18:57.989Z,4.60
2018-10-12T01:19:57.935Z,4.60
2018-10-12T01:20:57.976Z,4.60
2018-10-12T01:21:57.913Z,4.80
2018-10-12T01:22:57.925Z,4.70
2018-10-12T01:23:58.219Z,4.60
2018-10-12T01:24:57.880Z,4.90
2018-10-12T01:25:57.875Z,5.10
2018-10-12T01:26:57.859Z,4.50
2018-10-12T01:27:57.870Z,5.00
2018-10-12T01:28:58.379Z,4.70
2018-10-12T01:29:57.826Z,4.60
2018-10-12T01:30:57.840Z,4.80
2018-10-12T01:31:57.801Z,4.80
2018-10-12T01:32:57.790Z,4.60
2018-10-12T01:33:57.802Z,4.60
2018-10-12T01:34:57.767Z,4.40
2018-10-12T01:35:57.757Z,4.40
2018-10-12T01:36:57.745Z,4.60
2018-10-12T01:37:57.759Z,4.50
2018-10-12T01:38:57.768Z,4.60
2018-10-12T01:39:57.745Z,4.50
2018-10-12T01:40:57.701Z,4.50
2018-10-12T01:41:57.689Z,4.40
2018-10-12T01:42:57.704Z,4.60
2018-10-12T01:43:57.667Z,4.50
2018-10-12T01:44:57.655Z,4.60
2018-10-12T01:45:57.645Z,4.80
2018-10-12T01:46:57.634Z,4.50
2018-10-12T01:47:57.649Z,4.60
2018-10-12T01:48:57.612Z,4.50
2018-10-12T01:49:57.603Z,4.40
2018-10-12T01:50:57.597Z,4.50
2018-10-12T01:51:57.604Z,4.60
2018-10-12T01:52:57.566Z,4.50
2018-10-12T01:53:57.628Z,4.20
2018-10-12T01:54:57.544Z,4.60
2018-10-12T01:55:57.534Z,4.50
2018-10-12T01:56:57.523Z,4.70
2018-10-12T01:57:57.516Z,5.00
2018-10-12T01:58:57.739Z,4.40
2018-10-12T01:59:57.489Z,4.40
2018-10-12T02:00:57.478Z,4.80
2018-10-12T02:01:57.467Z,4.60
2018-10-12T02:02:57.479Z,4.60
2018-10-12T02:03:57.445Z,4.50
2018-10-12T02:04:57.471Z,4.50
2018-10-12T02:05:57.422Z,4.70
2018-10-12T02:06:57.414Z,4.50
2018-10-12T02:07:57.402Z,4.50
2018-10-12T02:08:57.390Z,4.40
2018-10-12T02:09:57.416Z,4.40
2018-10-12T02:10:57.368Z,4.60
2018-10-12T02:11:57.357Z,4.20
2018-10-12T02:12:57.344Z,4.60
2018-10-12T02:13:57.334Z,4.60
2018-10-12T02:14:57.345Z,4.30
2018-10-12T02:15:57.609Z,4.40
2018-10-12T02:16:57.300Z,4.60
2018-10-12T02:17:57.289Z,4.40
2018-10-12T02:18:57.301Z,4.50
2018-10-12T02:19:57.267Z,4.30
2018-10-12T02:20:57.280Z,4.50
2018-10-12T02:21:57.244Z,4.60
2018-10-12T02:22:57.234Z,4.30
2018-10-12T02:23:57.221Z,4.40
2018-10-12T02:24:57.210Z,4.60
2018-10-12T02:25:57.225Z,4.50
2018-10-12T02:26:57.188Z,4.40
2018-10-12T02:27:57.177Z,4.00
2018-10-12T02:28:57.166Z,4.30
2018-10-12T02:29:57.154Z,4.40
2018-10-12T02:30:57.167Z,4.40
2018-10-12T02:31:57.132Z,4.40
2018-10-12T02:32:57.129Z,4.30
2018-10-12T02:33:57.115Z,4.50
2018-10-12T02:34:57.100Z,4.50
2018-10-12T02:35:57.153Z,4.10
2018-10-12T02:36:57.101Z,4.30
2018-10-12T02:37:57.067Z,4.20
2018-10-12T02:38:57.055Z,4.30
2018-10-12T02:39:57.047Z,4.40
2018-10-12T02:40:57.032Z,4.20
2018-10-12T02:41:57.045Z,4.30
2018-10-12T02:42:57.016Z,4.40
2018-10-12T02:43:57.023Z,4.40
2018-10-12T02:44:56.986Z,4.30
2018-10-12T02:45:57.001Z,4.20
2018-10-12T02:46:56.969Z,4.30
2018-10-12T02:47:56.953Z,4.20
2018-10-12T02:48:56.944Z,4.50
2018-10-12T02:49:56.932Z,4.10
2018-10-12T02:50:56.944Z,4.30
2018-10-12T02:51:56.909Z,4.10
2018-10-12T02:52:56.899Z,4.30
2018-10-12T02:53:56.911Z,4.30
2018-10-12T02:54:56.875Z,4.20
2018-10-12T02:55:56.864Z,4.20
2018-10-12T02:56:56.853Z,4.40
2018-10-12T02:57:57.393Z,4.60
2018-10-12T02:58:56.833Z,4.40
2018-10-12T02:59:56.820Z,4.30
2018-10-12T03:00:56.812Z,4.20
2018-10-12T03:01:56.813Z,4.70
2018-10-12T03:02:56.812Z,4.30
2018-10-12T03:03:56.775Z,4.10
2018-10-12T03:04:56.765Z,4.40
2018-10-12T03:05:56.755Z,4.40
2018-10-12T03:06:56.767Z,4.20
2018-10-12T03:07:56.756Z,4.60
2018-10-12T03:08:56.723Z,3.80
2018-10-12T03:09:56.733Z,3.90
2018-10-12T03:10:56.698Z,4.50
2018-10-12T03:11:57.028Z,4.60
2018-10-12T03:12:56.674Z,4.80
2018-10-12T03:13:56.665Z,4.40
2018-10-12T03:14:56.692Z,4.30
2018-10-12T03:15:56.642Z,4.10
2018-10-12T03:16:56.634Z,4.40
2018-10-12T03:17:56.619Z,4.30
2018-10-12T03:18:56.608Z,3.90
2018-10-12T03:19:56.793Z,4.20
2018-10-12T03:20:56.584Z,4.10
2018-10-12T03:21:56.577Z,4.40
2018-10-12T03:22:56.588Z,4.30
2018-10-12T03:23:57.028Z,4.20
2018-10-12T03:24:56.933Z,4.20
2018-10-12T03:25:56.531Z,4.10
2018-10-12T03:26:56.518Z,4.00
2018-10-12T03:27:56.507Z,4.00
2018-10-12T03:28:56.532Z,4.20
2018-10-12T03:29:56.485Z,4.00
2018-10-12T03:30:56.476Z,4.30
2018-10-12T03:31:56.466Z,4.10
2018-10-12T03:32:56.450Z,3.90
2018-10-12T03:33:56.474Z,4.30
2018-10-12T03:34:56.430Z,4.40
2018-10-12T03:35:56.417Z,4.00
2018-10-12T03:36:56.411Z,4.00
2018-10-12T03:37:56.618Z,4.20
2018-10-12T03:38:56.412Z,4.50
2018-10-12T03:39:56.462Z,4.30
2018-10-12T03:40:56.362Z,4.20
2018-10-12T03:41:56.351Z,4.10
2018-10-12T03:42:56.340Z,4.00
2018-10-12T03:43:56.352Z,4.30
2018-10-12T03:44:56.904Z,4.10
2018-10-12T03:45:56.305Z,4.40
2018-10-12T03:46:56.297Z,4.10
2018-10-12T03:47:56.309Z,4.10
2018-10-12T03:48:56.297Z,3.90
2018-10-12T03:49:56.261Z,3.90
2018-10-12T03:50:56.250Z,4.20
2018-10-12T03:51:56.277Z,4.00
2018-10-12T03:52:56.317Z,4.10
2018-10-12T03:53:56.218Z,4.20
2018-10-12T03:54:56.206Z,4.30
2018-10-12T03:55:56.195Z,4.00
2018-10-12T03:56:56.207Z,4.40
2018-10-12T03:57:56.173Z,4.40
2018-10-12T03:58:56.164Z,4.00
2018-10-12T03:59:56.150Z,4.00
2018-10-12T04:00:57.013Z,3.70
2018-10-12T04:01:56.129Z,4.00
2018-10-12T04:02:56.172Z,4.00
2018-10-12T04:03:56.131Z,4.00
2018-10-12T04:04:56.118Z,3.90
2018-10-12T04:05:56.083Z,4.30
2018-10-12T04:06:56.071Z,4.20
2018-10-12T04:07:56.061Z,4.10
2018-10-12T04:08:56.076Z,3.80
2018-10-12T04:09:56.039Z,3.80
2018-10-12T04:10:56.038Z,4.00
2018-10-12T04:11:56.020Z,3.90
2018-10-12T04:12:56.029Z,4.00
2018-10-12T04:13:55.995Z,4.00
2018-10-12T04:14:55.984Z,4.40
2018-10-12T04:15:55.999Z,3.80
2018-10-12T04:16:55.961Z,4.10
2018-10-12T04:17:55.949Z,4.00
2018-10-12T04:18:55.973Z,4.20
2018-10-12T04:19:55.931Z,4.20
2018-10-12T04:20:55.916Z,3.90
2018-10-12T04:21:55.905Z,4.00
2018-10-12T04:22:55.920Z,4.10
2018-10-12T04:23:55.908Z,4.00
2018-10-12T04:24:55.894Z,3.90
2018-10-12T04:25:55.860Z,4.10
2018-10-12T04:26:56.359Z,4.00
2018-10-12T04:27:55.838Z,3.80
2018-10-12T04:28:55.852Z,4.30
2018-10-12T04:29:55.816Z,4.00
2018-10-12T04:30:55.878Z,3.80
2018-10-12T04:31:55.821Z,4.20
2018-10-12T04:32:55.782Z,3.80
2018-10-12T04:33:55.771Z,4.00
2018-10-12T04:34:55.759Z,4.10
2018-10-12T04:35:55.749Z,3.90
2018-10-12T04:36:55.761Z,4.10
2018-10-12T04:37:56.200Z,3.80
2018-10-12T04:38:55.728Z,4.10
2018-10-12T04:39:56.011Z,4.00
2018-10-12T04:40:55.694Z,4.20
2018-10-12T04:41:55.681Z,4.10
2018-10-12T04:42:55.704Z,4.00
2018-10-12T04:43:56.417Z,4.10
2018-10-12T04:44:55.647Z,4.20
2018-10-12T04:45:55.637Z,3.90
2018-10-12T04:46:55.626Z,3.80
2018-10-12T04:47:55.640Z,3.90
2018-10-12T04:48:55.603Z,4.00
2018-10-12T04:49:55.593Z,3.90
2018-10-12T04:50:55.582Z,4.20
2018-10-12T04:51:55.569Z,4.00
2018-10-12T04:52:55.681Z,4.00
2018-10-12T04:53:55.694Z,3.90
2018-10-12T04:54:55.536Z,3.90
2018-10-12T04:55:55.524Z,3.90
2018-10-12T04:56:55.544Z,4.20
2018-10-12T04:57:55.527Z,3.90
2018-10-12T04:58:55.492Z,3.90
2018-10-12T04:59:55.481Z,3.90
2018-10-12T05:00:55.513Z,3.80
2018-10-12T05:01:55.581Z,4.00
2018-10-12T05:02:55.447Z,3.90
2018-10-12T05:03:55.435Z,3.80
2018-10-12T05:04:55.425Z,3.90
2018-10-12T05:05:55.438Z,3.70
2018-10-12T05:06:55.445Z,3.90
2018-10-12T05:07:55.402Z,4.10
2018-10-12T05:08:55.385Z,3.90
2018-10-12T05:09:55.369Z,3.80
2018-10-12T05:10:55.361Z,3.60
2018-10-12T05:11:55.370Z,3.90
2018-10-12T05:12:55.356Z,3.70
2018-10-12T05:13:55.324Z,4.00
2018-10-12T05:14:55.317Z,4.00
2018-10-12T05:15:55.302Z,3.80
2018-10-12T05:16:55.315Z,3.70
2018-10-12T05:17:55.281Z,3.90
2018-10-12T05:18:55.268Z,3.90
2018-10-12T05:19:55.257Z,3.90
2018-10-12T05:20:55.295Z,4.00
2018-10-12T05:21:55.274Z,4.00
2018-10-12T05:22:55.224Z,4.00
2018-10-12T05:23:55.213Z,3.80
2018-10-12T05:24:55.662Z,4.00
2018-10-12T05:25:55.219Z,4.00
2018-10-12T05:26:55.179Z,4.10
2018-10-12T05:27:55.173Z,3.80
2018-10-12T05:28:55.169Z,3.90
2018-10-12T05:29:55.452Z,4.00
2018-10-12T05:30:55.137Z,3.70
2018-10-12T05:31:55.151Z,3.60
2018-10-12T05:32:55.522Z,4.10
2018-10-12T05:33:55.100Z,3.80
2018-10-12T05:34:55.090Z,4.00
2018-10-12T05:35:55.116Z,3.90
2018-10-12T05:36:55.073Z,3.90
2018-10-12T05:37:55.099Z,4.00
2018-10-12T05:38:55.046Z,3.80
2018-10-12T05:39:55.073Z,4.00
2018-10-12T05:40:55.023Z,4.00
2018-10-12T05:41:55.052Z,3.60
2018-10-12T05:42:55.169Z,3.70
2018-10-12T05:43:55.113Z,3.70
2018-10-12T05:44:55.457Z,3.90
2018-10-12T05:45:54.982Z,3.90
2018-10-12T05:46:54.966Z,4.10
2018-10-12T05:47:54.964Z,3.70
2018-10-12T05:48:55.094Z,3.90
2018-10-12T05:49:54.946Z,3.70
2018-10-12T05:50:54.938Z,4.00
2018-10-12T05:51:54.902Z,4.10
2018-10-12T05:52:54.890Z,3.70
2018-10-12T05:53:54.877Z,4.00
2018-10-12T05:54:55.183Z,3.70
2018-10-12T05:55:54.915Z,3.80
2018-10-12T05:56:54.846Z,3.60
2018-10-12T05:57:54.834Z,3.70
2018-10-12T05:58:54.905Z,3.60
2018-10-12T05:59:54.832Z,3.70
2018-10-12T06:00:54.803Z,3.50
2018-10-12T06:01:54.790Z,3.80
2018-10-12T06:02:54.776Z,3.60
2018-10-12T06:03:54.764Z,4.50
2018-10-12T06:04:54.956Z,4.50
2018-10-12T06:05:54.743Z,4.30
2018-10-12T06:06:54.733Z,4.60
2018-10-12T06:07:54.945Z,4.80
2018-10-12T06:08:55.396Z,4.70
2018-10-12T06:09:54.881Z,4.60
2018-10-12T06:10:54.688Z,5.30
2018-10-12T06:11:54.707Z,5.60
2018-10-12T06:12:54.693Z,4.90
2018-10-12T06:13:54.654Z,5.10
2018-10-12T06:14:54.655Z,5.40
2018-10-12T06:15:54.647Z,5.30
2018-10-12T06:16:54.653Z,5.30
2018-10-12T06:17:54.610Z,6.00
2018-10-12T06:18:54.598Z,5.60
2018-10-12T06:19:54.587Z,5.80
2018-10-12T06:20:54.576Z,5.70
2018-10-12T06:21:55.382Z,5.70
2018-10-12T06:22:54.562Z,6.00
2018-10-12T06:23:54.575Z,5.90
2018-10-12T06:24:54.531Z,5.90
2018-10-12T06:25:54.521Z,6.30
2018-10-12T06:26:54.590Z,6.50
2018-10-12T06:27:54.498Z,6.00
2018-10-12T06:28:54.521Z,6.00
2018-10-12T06:29:54.476Z,5.90
2018-10-12T06:30:54.517Z,6.20
2018-10-12T06:31:54.454Z,6.00
2018-10-12T06:32:54.476Z,6.20
2018-10-12T06:33:54.474Z,5.60
2018-10-12T06:34:54.421Z,6.00
2018-10-12T06:35:54.411Z,5.70
2018-10-12T06:36:54.398Z,6.20
2018-10-12T06:37:54.386Z,5.70
2018-10-12T06:38:54.605Z,5.60
2018-10-12T06:39:54.365Z,5.90
2018-10-12T06:40:54.384Z,6.00
2018-10-12T06:41:54.467Z,6.20
2018-10-12T06:42:54.360Z,5.70
2018-10-12T06:43:54.343Z,5.70
2018-10-12T06:44:54.380Z,5.50
2018-10-12T06:45:54.298Z,5.50
2018-10-12T06:46:54.288Z,5.80
2018-10-12T06:47:54.275Z,5.70
2018-10-12T06:48:54.294Z,5.80
2018-10-12T06:49:54.304Z,5.70
2018-10-12T06:50:54.241Z,6.00
2018-10-12T06:51:54.230Z,5.60
2018-10-12T06:52:54.252Z,5.80
2018-10-12T06:53:54.311Z,5.70
2018-10-12T06:54:54.225Z,5.60
2018-10-12T06:55:54.186Z,5.80
2018-10-12T06:56:54.177Z,5.90
2018-10-12T06:57:54.163Z,6.10
2018-10-12T06:58:54.153Z,5.60
2018-10-12T06:59:54.233Z,5.60
2018-10-12T07:00:54.142Z,5.70
2018-10-12T07:01:54.118Z,5.90
2018-10-12T07:02:54.604Z,5.50
2018-10-12T07:03:54.096Z,6.00
2018-10-12T07:04:54.108Z,6.00
2018-10-12T07:05:54.101Z,5.60
2018-10-12T07:06:54.063Z,5.20
2018-10-12T07:07:54.052Z,5.60
2018-10-12T07:08:54.066Z,5.90
2018-10-12T07:09:54.171Z,5.10
2018-10-12T07:10:54.018Z,5.30
2018-10-12T07:11:54.017Z,5.30
2018-10-12T07:12:53.995Z,4.90
2018-10-12T07:13:54.006Z,5.20
2018-10-12T07:14:54.034Z,5.30
2018-10-12T07:15:53.964Z,5.30
2018-10-12T07:16:53.979Z,5.60
2018-10-12T07:17:53.941Z,5.20
2018-10-12T07:18:53.929Z,5.20
2018-10-12T07:19:53.942Z,5.20
2018-10-12T07:20:53.906Z,5.10
2018-10-12T07:21:54.304Z,5.20
2018-10-12T07:22:53.884Z,5.30
2018-10-12T07:23:53.874Z,5.00
2018-10-12T07:24:53.890Z,4.80
2018-10-12T07:25:53.968Z,5.20
2018-10-12T07:26:53.948Z,5.10
2018-10-12T07:27:53.955Z,5.40
2018-10-12T07:28:53.824Z,5.40
2018-10-12T07:29:53.805Z,5.00
2018-10-12T07:30:53.795Z,4.60
2018-10-12T07:31:53.805Z,5.00
2018-10-12T07:32:53.781Z,5.60
2018-10-12T07:33:53.765Z,5.10
2018-10-12T07:34:53.757Z,4.80
2018-10-12T07:35:53.936Z,4.90
2018-10-12T07:36:53.731Z,5.10
2018-10-12T07:37:53.732Z,5.40
2018-10-12T07:38:53.712Z,5.20
2018-10-12T07:39:53.695Z,4.90
2018-10-12T07:40:53.848Z,5.20
2018-10-12T07:41:53.675Z,5.20
2018-10-12T07:42:53.661Z,5.30
2018-10-12T07:43:53.649Z,4.50
2018-10-12T07:44:53.704Z,4.90
2018-10-12T07:45:53.969Z,5.20
2018-10-12T07:46:53.640Z,5.00
2018-10-12T07:47:53.632Z,4.70
2018-10-12T07:48:53.618Z,4.70
2018-10-12T07:49:53.797Z,5.00
2018-10-12T07:50:53.572Z,5.00
2018-10-12T07:51:53.560Z,5.10
2018-10-12T07:52:53.581Z,4.50
2018-10-12T07:53:53.555Z,4.90
2018-10-12T07:54:53.560Z,4.90
2018-10-12T07:55:53.515Z,4.80
2018-10-12T07:56:53.505Z,4.60
2018-10-12T07:57:53.524Z,4.70
2018-10-12T07:58:53.506Z,4.70
2018-10-12T07:59:53.471Z,4.60
2018-10-12T08:00:53.484Z,4.80
2018-10-12T08:01:53.448Z,4.60
2018-10-12T08:02:53.470Z,4.80
2018-10-12T08:03:53.613Z,4.60
2018-10-12T08:04:53.600Z,4.90
2018-10-12T08:05:53.404Z,4.80
2018-10-12T08:06:53.410Z,4.60
2018-10-12T08:07:53.384Z,4.80
2018-10-12T08:08:53.394Z,4.70
2018-10-12T08:09:53.359Z,4.90
2018-10-12T08:10:53.387Z,4.70
2018-10-12T08:11:53.359Z,4.60
2018-10-12T08:12:53.349Z,4.60
2018-10-12T08:13:53.511Z,4.50
2018-10-12T08:14:53.325Z,4.60
2018-10-12T08:15:53.291Z,4.80
2018-10-12T08:16:53.296Z,4.70
2018-10-12T08:17:53.384Z,4.70
2018-10-12T08:18:53.322Z,4.70
2018-10-12T08:19:53.259Z,4.90
2018-10-12T08:20:53.280Z,4.80
2018-10-12T08:21:53.226Z,5.00
2018-10-12T08:22:53.214Z,4.60
2018-10-12T08:23:53.976Z,4.70
2018-10-12T08:24:53.224Z,5.00
2018-10-12T08:25:53.233Z,5.00
2018-10-12T08:26:53.229Z,4.90
2018-10-12T08:27:53.164Z,4.60
2018-10-12T08:28:53.147Z,5.10
2018-10-12T08:29:53.347Z,5.00
2018-10-12T08:30:53.150Z,4.80
2018-10-12T08:31:53.156Z,4.30
2018-10-12T08:32:53.104Z,4.40
2018-10-12T08:33:53.115Z,4.70
2018-10-12T08:34:53.080Z,5.00
2018-10-12T08:35:53.115Z,4.60
2018-10-12T08:36:53.081Z,4.80
2018-10-12T08:37:53.050Z,4.70
2018-10-12T08:38:53.036Z,4.30
2018-10-12T08:39:53.047Z,4.70
2018-10-12T08:40:53.013Z,4.80
2018-10-12T08:41:53.076Z,4.50
2018-10-12T08:42:53.016Z,4.90
2018-10-12T08:43:52.980Z,5.00
2018-10-12T08:44:52.968Z,5.00
2018-10-12T08:45:52.961Z,5.10
2018-10-12T08:46:52.979Z,4.60
2018-10-12T08:47:52.936Z,4.80
2018-10-12T08:48:52.926Z,4.60
2018-10-12T08:49:52.914Z,4.60
2018-10-12T08:50:52.929Z,5.10
2018-10-12T08:51:52.915Z,4.90
2018-10-12T08:52:52.902Z,4.80
2018-10-12T08:53:52.872Z,4.50
2018-10-12T08:54:52.857Z,4.80
2018-10-12T08:55:52.845Z,4.90
2018-10-12T08:56:52.837Z,4.50
2018-10-12T08:57:52.857Z,4.60
2018-10-12T08:58:52.813Z,4.50
2018-10-12T08:59:52.811Z,4.80
2018-10-12T09:00:52.819Z,4.50
2018-10-12T09:01:52.782Z,4.50
2018-10-12T09:02:52.822Z,4.90
2018-10-12T09:03:52.756Z,4.60
2018-10-12T09:04:52.780Z,4.90
2018-10-12T09:05:52.733Z,4.60
2018-10-12T09:06:52.724Z,4.60
2018-10-12T09:07:52.711Z,4.20
2018-10-12T09:08:52.705Z,4.60
2018-10-12T09:09:52.737Z,4.50
2018-10-12T09:10:52.680Z,4.70
2018-10-12T09:11:52.666Z,4.40
2018-10-12T09:12:52.664Z,4.30
2018-10-12T09:13:52.706Z,4.30
2018-10-12T09:14:52.658Z,4.70
2018-10-12T09:15:52.627Z,4.60
2018-10-12T09:16:52.611Z,4.50
2018-10-12T09:17:52.653Z,4.50
2018-10-12T09:18:52.589Z,4.40
2018-10-12T09:19:52.610Z,4.40
2018-10-12T09:20:52.624Z,4.30
2018-10-12T09:21:52.675Z,4.50
2018-10-12T09:22:52.545Z,4.20
2018-10-12T09:23:52.534Z,4.40
2018-10-12T09:24:53.487Z,4.40
2018-10-12T09:25:53.010Z,4.50
2018-10-12T09:26:53.487Z,4.70
2018-10-12T09:27:53.992Z,4.40
2018-10-12T09:28:52.994Z,4.30
2018-10-12T09:29:52.507Z,4.20
2018-10-12T09:30:52.455Z,4.40
2018-10-12T09:31:52.494Z,4.80
2018-10-12T09:32:52.506Z,4.30
2018-10-12T09:33:52.484Z,4.50
2018-10-12T09:34:52.443Z,4.40
2018-10-12T09:35:52.411Z,4.30
2018-10-12T09:36:52.432Z,4.10
2018-10-12T09:37:52.474Z,4.30
2018-10-12T09:38:52.379Z,4.50
2018-10-12T09:39:52.366Z,4.00
2018-10-12T09:40:52.343Z,4.50
2018-10-12T09:41:52.373Z,4.30
2018-10-12T09:42:52.338Z,4.30
2018-10-12T09:43:52.324Z,4.20
2018-10-12T09:44:52.736Z,4.40
2018-10-12T09:45:53.988Z,4.40
2018-10-12T09:46:52.318Z,4.00
2018-10-12T09:47:52.276Z,4.20
2018-10-12T09:48:52.265Z,4.30
2018-10-12T09:49:52.250Z,4.30
2018-10-12T09:50:52.239Z,4.50
2018-10-12T09:51:52.492Z,4.60
2018-10-12T09:52:52.904Z,4.10
2018-10-12T09:53:52.278Z,4.20
2018-10-12T09:54:52.259Z,4.10
2018-10-12T09:55:52.311Z,4.10
2018-10-12T09:56:52.194Z,4.00
2018-10-12T09:57:52.229Z,4.30
2018-10-12T09:58:52.187Z,4.00
2018-10-12T09:59:52.175Z,3.80
2018-10-12T10:00:52.125Z,4.00
2018-10-12T10:01:52.202Z,4.00
2018-10-12T10:02:52.108Z,4.10
2018-10-12T10:03:52.094Z,4.20
2018-10-12T10:04:52.076Z,4.20
2018-10-12T10:05:52.074Z,4.10
2018-10-12T10:06:52.078Z,4.30
2018-10-12T10:07:52.794Z,3.90
2018-10-12T10:08:52.132Z,4.00
2018-10-12T10:09:52.022Z,3.90
2018-10-12T10:10:52.037Z,3.80
2018-10-12T10:11:52.001Z,4.00
2018-10-12T10:12:51.986Z,4.00
2018-10-12T10:13:52.078Z,3.90
2018-10-12T10:14:51.963Z,4.50
2018-10-12T10:15:52.026Z,3.80
2018-10-12T10:16:52.042Z,4.30
2018-10-12T10:17:51.940Z,4.30
2018-10-12T10:18:51.946Z,3.80
2018-10-12T10:19:51.933Z,3.70
2018-10-12T10:20:51.898Z,4.30
2018-10-12T10:21:52.212Z,4.10
2018-10-12T10:22:51.875Z,4.00
2018-10-12T10:23:51.871Z,3.70
2018-10-12T10:24:51.916Z,4.00
2018-10-12T10:25:51.847Z,4.10
2018-10-12T10:26:51.942Z,3.70
2018-10-12T10:27:51.843Z,3.70
2018-10-12T10:28:52.034Z,4.00
2018-10-12T10:29:51.823Z,4.00
2018-10-12T10:30:51.795Z,3.80
2018-10-12T10:31:51.777Z,4.00
2018-10-12T10:32:51.787Z,3.90
2018-10-12T10:33:51.841Z,4.10
2018-10-12T10:34:52.090Z,3.70
2018-10-12T10:35:51.735Z,3.60
2018-10-12T10:36:51.833Z,4.00
2018-10-12T10:37:51.711Z,4.00
2018-10-12T10:38:51.741Z,4.00
2018-10-12T10:39:51.688Z,4.00
2018-10-12T10:40:51.711Z,3.70
2018-10-12T10:41:51.688Z,3.90
2018-10-12T10:42:51.659Z,3.80
2018-10-12T10:43:51.648Z,3.70
2018-10-12T10:44:51.630Z,4.00
2018-10-12T10:45:51.652Z,3.80
2018-10-12T10:46:51.610Z,4.20
2018-10-12T10:47:51.601Z,4.00
2018-10-12T10:48:51.591Z,3.90
2018-10-12T10:49:51.615Z,3.50
2018-10-12T10:50:51.606Z,4.10
2018-10-12T10:51:51.555Z,3.70
2018-10-12T10:52:51.542Z,3.60
2018-10-12T10:53:51.533Z,3.80
2018-10-12T10:54:51.533Z,3.60
2018-10-12T10:55:51.608Z,4.10
2018-10-12T10:56:51.517Z,3.60
2018-10-12T10:57:51.640Z,3.90
2018-10-12T10:58:51.475Z,4.10
2018-10-12T10:59:51.467Z,4.00
2018-10-12T11:00:51.486Z,3.70
2018-10-12T11:01:51.478Z,3.50
2018-10-12T11:02:51.436Z,3.80
2018-10-12T11:03:51.426Z,3.70
2018-10-12T11:04:51.462Z,3.80
2018-10-12T11:05:51.424Z,3.80
2018-10-12T11:06:51.415Z,4.00
2018-10-12T11:07:51.379Z,3.70
2018-10-12T11:08:51.408Z,3.70
2018-10-12T11:09:51.614Z,3.60
2018-10-12T11:10:51.373Z,3.70
2018-10-12T11:11:51.561Z,3.80
2018-10-12T11:12:51.490Z,3.70
2018-10-12T11:13:51.309Z,3.70
2018-10-12T11:14:51.296Z,3.80
2018-10-12T11:15:51.299Z,3.70
2018-10-12T11:16:51.324Z,3.50
2018-10-12T11:17:51.312Z,3.80
2018-10-12T11:18:51.387Z,3.50
2018-10-12T11:19:51.247Z,3.60
2018-10-12T11:20:51.258Z,3.60
2018-10-12T11:21:51.255Z,3.70
2018-10-12T11:22:51.209Z,3.80
2018-10-12T11:23:51.197Z,3.70
2018-10-12T11:24:51.190Z,3.70
2018-10-12T11:25:51.610Z,3.70
2018-10-12T11:26:51.280Z,3.80
2018-10-12T11:27:51.153Z,3.60
2018-10-12T11:28:51.320Z,3.40
2018-10-12T11:29:51.165Z,3.50
2018-10-12T11:30:51.118Z,3.40
2018-10-12T11:31:51.121Z,3.50
2018-10-12T11:32:51.214Z,3.30
2018-10-12T11:33:51.087Z,3.60
2018-10-12T11:34:51.161Z,3.40
2018-10-12T11:35:51.067Z,3.50
2018-10-12T11:36:51.118Z,3.40
2018-10-12T11:37:51.049Z,3.30
2018-10-12T11:38:51.069Z,3.40
2018-10-12T11:39:52.105Z,3.60
2018-10-12T11:40:51.025Z,3.30
2018-10-12T11:41:50.998Z,3.60
2018-10-12T11:42:50.988Z,3.10
2018-10-12T11:43:50.985Z,3.50
2018-10-12T11:44:51.421Z,3.30
2018-10-12T11:45:50.955Z,3.10
2018-10-12T11:46:50.946Z,3.30
2018-10-12T11:47:51.077Z,3.30
2018-10-12T11:48:51.032Z,3.40
2018-10-12T11:49:50.942Z,3.10
2018-10-12T11:50:50.898Z,3.50
2018-10-12T11:51:50.911Z,3.20
2018-10-12T11:52:50.879Z,3.20
2018-10-12T11:53:51.064Z,3.10
2018-10-12T11:54:50.854Z,3.70
2018-10-12T11:55:50.846Z,3.20
2018-10-12T11:56:50.842Z,3.30
2018-10-12T11:57:50.947Z,3.00
2018-10-12T11:58:50.842Z,3.30
2018-10-12T11:59:50.828Z,3.40
2018-10-12T12:00:50.841Z,3.60
2018-10-12T12:01:50.971Z,3.30
2018-10-12T12:02:51.080Z,2.80
2018-10-12T12:03:50.906Z,3.20
2018-10-12T12:04:50.742Z,2.90
2018-10-12T12:05:50.812Z,3.30
2018-10-12T12:06:50.855Z,3.00
2018-10-12T12:07:50.710Z,3.10
2018-10-12T12:08:50.724Z,3.40
2018-10-12T12:09:50.687Z,3.10
2018-10-12T12:10:50.674Z,3.10
2018-10-12T12:11:50.670Z,3.30
2018-10-12T12:12:50.725Z,3.30
2018-10-12T12:13:50.799Z,2.70
2018-10-12T12:14:50.629Z,2.90
2018-10-12T12:15:50.620Z,3.20
2018-10-12T12:16:50.629Z,3.00
2018-10-12T12:17:50.635Z,3.00
2018-10-12T12:18:50.588Z,3.00
2018-10-12T12:19:50.673Z,2.80
2018-10-12T12:20:50.565Z,3.00
2018-10-12T12:21:50.605Z,3.20
2018-10-12T12:22:50.685Z,2.90
2018-10-12T12:23:50.720Z,2.90
2018-10-12T12:24:50.518Z,2.90
2018-10-12T12:25:50.533Z,2.90
2018-10-12T12:26:50.497Z,3.00
2018-10-12T12:27:50.486Z,2.90
2018-10-12T12:28:50.474Z,3.10
2018-10-12T12:29:50.487Z,2.90
2018-10-12T12:30:50.457Z,2.70
2018-10-12T12:31:50.460Z,2.70
2018-10-12T12:32:50.453Z,3.00
2018-10-12T12:33:50.419Z,3.00
2018-10-12T12:34:50.633Z,2.90
2018-10-12T12:35:50.792Z,2.80
2018-10-12T12:36:50.411Z,3.00
2018-10-12T12:37:50.373Z,2.80
2018-10-12T12:38:50.362Z,2.60
2018-10-12T12:39:50.359Z,2.80
2018-10-12T12:40:50.366Z,3.10
2018-10-12T12:41:50.456Z,2.70
2018-10-12T12:42:50.343Z,2.80
2018-10-12T12:43:50.352Z,2.60
2018-10-12T12:44:50.294Z,2.80
2018-10-12T12:45:50.319Z,2.80
2018-10-12T12:46:51.029Z,2.80
2018-10-12T12:47:50.292Z,2.70
2018-10-12T12:48:50.745Z,2.80
2018-10-12T12:49:50.302Z,2.60
2018-10-12T12:50:50.229Z,2.50
2018-10-12T12:51:50.335Z,2.70
2018-10-12T12:52:50.206Z,2.80
2018-10-12T12:53:50.358Z,2.60
2018-10-12T12:54:50.238Z,2.70
2018-10-12T12:55:50.192Z,2.80
2018-10-12T12:56:50.250Z,2.40
2018-10-12T12:57:50.253Z,2.70
2018-10-12T12:58:50.158Z,2.30
2018-10-12T12:59:50.128Z,2.60
2018-10-12T13:00:50.206Z,2.60
2018-10-12T13:01:50.236Z,2.60
2018-10-12T13:02:50.221Z,2.50
2018-10-12T13:03:50.114Z,2.70
2018-10-12T13:04:50.396Z,2.80
2018-10-12T13:05:50.094Z,2.80
2018-10-12T13:06:50.075Z,2.50
2018-10-12T13:07:50.049Z,2.40
2018-10-12T13:08:50.060Z,2.80
2018-10-12T13:09:50.017Z,2.70
2018-10-12T13:10:50.006Z,2.40
2018-10-12T13:11:49.994Z,2.70
2018-10-12T13:12:49.983Z,2.40
2018-10-12T13:13:50.052Z,2.70
2018-10-12T13:14:49.990Z,2.80
2018-10-12T13:15:49.953Z,2.30
2018-10-12T13:16:49.939Z,2.50
2018-10-12T13:17:49.931Z,2.70
2018-10-12T13:18:49.969Z,2.50